Time;durP1;ratioP1;P1;durP2;ratioP2;P2;SDS_P1;SDS_P2;PMS_P1;PMS_P2;Temp;Humidity;BMP_temperature;BMP_pressure;BME280_temperature;BME280_humidity;BME280_pressure;Samples;Min_cycle;Max_cycle;Signal;HPM_P1;HPM_P2
2023/08/11 00:00:44;;;;;;;12.45;10.25;;;16.90;99.90;;;;;;5035916;28;20503;-79
2023/08/11 00:03:09;;;;;;;15.60;10.32;;;16.80;99.90;;;;;;5039752;28;20057;-79
2023/08/11 00:05:37;;;;;;;11.52;9.10;;;16.80;99.90;;;;;;5076581;28;20075;-79
2023/08/11 00:08:05;;;;;;;13.75;9.50;;;16.80;99.90;;;;;;5042584;28;20127;-80
2023/08/11 00:10:32;;;;;;;10.60;8.75;;;16.70;99.90;;;;;;5027670;28;20043;-80
2023/08/11 00:12:59;;;;;;;14.43;9.40;;;16.70;99.90;;;;;;5038995;28;20053;-80
2023/08/11 00:15:24;;;;;;;12.20;8.43;;;16.60;99.90;;;;;;5043686;28;20555;-79
2023/08/11 00:17:57;;;;;;;10.88;7.40;;;16.60;99.90;;;;;;5069407;28;20053;-80
2023/08/11 00:20:23;;;;;;;10.57;8.07;;;16.50;99.90;;;;;;5045260;28;20033;-80
2023/08/11 00:22:49;;;;;;;12.70;7.63;;;16.50;99.90;;;;;;5033624;28;21106;-79
2023/08/11 00:25:15;;;;;;;10.52;7.85;;;16.40;99.90;;;;;;5073505;28;20029;-79
2023/08/11 00:27:41;;;;;;;11.02;8.05;;;16.30;99.90;;;;;;5057482;28;20037;-81
2023/08/11 00:55:41;;;;;;;11.20;7.93;;;15.90;99.90;;;;;;5040921;28;20040;-80
2023/08/11 00:58:07;;;;;;;13.48;8.32;;;15.90;99.90;;;;;;5031070;28;20106;-80
2023/08/11 01:00:33;;;;;;;10.23;8.40;;;15.80;99.90;;;;;;5044385;28;20037;-79
2023/08/11 01:02:59;;;;;;;10.68;8.10;;;15.80;99.90;;;;;;5037342;28;20407;-79
2023/08/11 01:05:28;;;;;;;10.63;8.27;;;15.80;99.90;;;;;;5038060;28;20071;-79
2023/08/11 01:08:09;;;;;;;14.30;8.90;;;15.70;99.90;;;;;;5040488;28;20041;-79
2023/08/11 01:11:04;;;;;;;12.15;8.68;;;15.70;99.90;;;;;;5044392;28;20048;-79
2023/08/11 01:13:34;;;;;;;9.18;8.07;;;15.70;99.90;;;;;;5028033;28;20034;-79
2023/08/11 01:16:01;;;;;;;10.07;8.07;;;15.60;99.90;;;;;;5049602;28;20045;-79
2023/08/11 01:18:28;;;;;;;13.88;8.43;;;15.60;99.90;;;;;;5041744;28;20053;-79
2023/08/11 01:21:10;;;;;;;11.68;9.35;;;15.50;99.90;;;;;;5045473;28;20657;-79
2023/08/11 01:23:36;;;;;;;13.18;9.15;;;15.50;99.90;;;;;;5025950;28;20069;-80
2023/08/11 01:26:02;;;;;;;15.70;9.35;;;15.40;99.90;;;;;;5031569;28;20072;-79
2023/08/11 01:28:28;;;;;;;12.40;9.70;;;15.40;99.90;;;;;;5040035;28;20079;-79
2023/08/11 01:30:53;;;;;;;14.13;9.38;;;15.40;99.90;;;;;;5058096;28;20067;-79
2023/08/11 01:33:19;;;;;;;12.60;9.00;;;15.40;99.90;;;;;;5075568;28;20049;-79
2023/08/11 01:35:45;;;;;;;14.27;9.85;;;15.40;99.90;;;;;;5037763;28;20076;-79
2023/08/11 01:38:11;;;;;;;11.63;8.82;;;15.40;99.90;;;;;;5050094;28;20037;-79
2023/08/11 01:40:39;;;;;;;13.45;8.98;;;15.40;99.90;;;;;;5042287;28;20036;-79
2023/08/11 01:43:07;;;;;;;12.00;8.80;;;15.40;99.90;;;;;;5051878;28;20103;-79
2023/08/11 01:45:33;;;;;;;13.15;9.45;;;15.40;99.90;;;;;;5029428;28;20037;-79
2023/08/11 01:48:00;;;;;;;14.00;9.85;;;15.40;99.90;;;;;;5038611;28;20045;-79
2023/08/11 01:50:27;;;;;;;13.50;8.40;;;15.40;99.90;;;;;;5034710;28;20440;-79
2023/08/11 01:52:54;;;;;;;11.85;8.52;;;15.40;99.90;;;;;;5032110;28;20041;-79
2023/08/11 01:55:20;;;;;;;13.82;9.30;;;15.40;99.90;;;;;;5030488;28;20372;-78
2023/08/11 01:57:46;;;;;;;11.68;9.02;;;15.40;99.90;;;;;;5034950;28;20040;-79
2023/08/11 02:00:13;;;;;;;11.45;9.00;;;15.40;99.90;;;;;;5003154;28;20037;-79
2023/08/11 02:02:43;;;;;;;11.85;8.80;;;15.30;99.90;;;;;;5030350;28;20038;-80
2023/08/11 02:05:15;;;;;;;10.05;7.70;;;15.30;99.90;;;;;;5036621;28;20041;-79
2023/08/11 02:07:42;;;;;;;13.52;8.40;;;15.30;99.90;;;;;;5034667;28;20412;-79
2023/08/11 02:10:09;;;;;;;12.10;8.45;;;15.20;99.90;;;;;;5040545;28;20041;-79
2023/08/11 02:12:36;;;;;;;11.40;9.00;;;15.20;99.90;;;;;;5052623;28;20033;-78
2023/08/11 02:15:04;;;;;;;11.40;8.95;;;15.10;99.90;;;;;;5074769;28;20044;-79
2023/08/11 02:17:31;;;;;;;11.48;8.55;;;15.10;99.90;;;;;;5017619;28;20037;-79
2023/08/11 02:19:58;;;;;;;12.20;9.20;;;15.10;99.90;;;;;;5032885;28;20384;-79
2023/08/11 02:22:24;;;;;;;12.55;9.00;;;15.10;99.90;;;;;;5029825;28;20497;-79
2023/08/11 02:24:50;;;;;;;10.93;9.20;;;15.00;99.90;;;;;;5016195;28;20041;-79
2023/08/11 02:27:17;;;;;;;12.80;8.73;;;15.00;99.90;;;;;;5043454;28;20040;-78
2023/08/11 02:29:44;;;;;;;12.70;10.02;;;15.00;99.90;;;;;;5054078;28;20050;-79
2023/08/11 02:32:11;;;;;;;19.00;9.80;;;15.00;99.90;;;;;;5022039;28;20441;-79
2023/08/11 02:34:37;;;;;;;14.23;10.13;;;15.00;99.90;;;;;;5039430;28;20048;-79
2023/08/11 02:37:03;;;;;;;13.93;9.90;;;14.90;99.90;;;;;;5002954;28;20038;-79
2023/08/11 02:39:28;;;;;;;12.95;9.88;;;14.90;99.90;;;;;;5072150;28;20811;-79
2023/08/11 02:41:55;;;;;;;14.30;10.07;;;14.90;99.90;;;;;;5071395;28;20037;-78
2023/08/11 02:44:22;;;;;;;14.80;10.38;;;14.90;99.90;;;;;;5022720;28;20109;-79
2023/08/11 02:46:48;;;;;;;13.50;9.80;;;14.80;99.90;;;;;;5037525;28;20478;-79
2023/08/11 02:49:13;;;;;;;13.73;10.18;;;14.80;99.90;;;;;;5035972;28;20049;-79
2023/08/11 02:51:39;;;;;;;14.30;10.57;;;14.80;99.90;;;;;;5022160;28;20040;-79
2023/08/11 02:54:05;;;;;;;13.55;10.07;;;14.70;99.90;;;;;;5039172;28;20046;-78
2023/08/11 02:56:31;;;;;;;11.70;8.95;;;14.70;99.90;;;;;;5038869;28;20049;-79
2023/08/11 02:58:58;;;;;;;12.43;9.88;;;14.70;99.90;;;;;;5039560;28;20044;-79
2023/08/11 03:01:25;;;;;;;12.57;9.80;;;14.70;99.90;;;;;;5037263;28;20037;-79
2023/08/11 03:03:50;;;;;;;13.32;9.93;;;14.70;99.90;;;;;;5040254;28;20067;-79
2023/08/11 03:06:16;;;;;;;14.65;9.80;;;14.60;99.90;;;;;;5039053;28;20132;-78
2023/08/11 03:08:42;;;;;;;13.98;9.80;;;14.60;99.90;;;;;;5054323;28;20056;-79
2023/08/11 03:11:08;;;;;;;12.73;9.48;;;14.60;99.90;;;;;;5054540;28;20479;-79
2023/08/11 03:13:35;;;;;;;14.38;9.70;;;14.60;99.90;;;;;;5035255;28;20041;-78
2023/08/11 03:16:01;;;;;;;11.80;9.45;;;14.60;99.90;;;;;;5037945;28;20128;-79
2023/08/11 03:18:27;;;;;;;14.43;9.45;;;14.60;99.90;;;;;;5053976;28;21744;-78
2023/08/11 03:20:52;;;;;;;14.05;9.52;;;14.60;99.90;;;;;;5021937;28;20481;-78
2023/08/11 03:23:19;;;;;;;12.38;9.38;;;14.60;99.90;;;;;;5022802;28;20033;-78
2023/08/11 03:25:45;;;;;;;13.40;9.30;;;14.60;99.90;;;;;;5021778;28;20041;-78
2023/08/11 03:28:11;;;;;;;13.85;9.00;;;14.50;99.90;;;;;;5040149;28;20080;-78
2023/08/11 03:30:37;;;;;;;12.00;9.48;;;14.60;99.90;;;;;;5024731;28;20106;-78
2023/08/11 03:33:03;;;;;;;13.15;9.20;;;14.50;99.90;;;;;;5021588;28;20405;-78
2023/08/11 03:35:32;;;;;;;12.77;9.30;;;14.50;99.90;;;;;;5054469;28;20037;-78
2023/08/11 03:37:57;;;;;;;15.60;8.30;;;14.40;99.90;;;;;;5034609;28;20051;-78
2023/08/11 03:40:23;;;;;;;13.02;8.57;;;14.40;99.90;;;;;;5057888;28;20045;-78
2023/08/11 03:42:49;;;;;;;13.15;9.18;;;14.40;99.90;;;;;;5039866;28;20108;-78
2023/08/11 03:45:15;;;;;;;12.43;8.80;;;14.40;99.90;;;;;;5038127;28;20494;-78
2023/08/11 03:47:42;;;;;;;11.35;8.25;;;14.40;99.90;;;;;;5070310;28;20045;-78
2023/08/11 03:50:09;;;;;;;14.77;8.82;;;14.40;99.90;;;;;;5019710;28;20041;-78
2023/08/11 03:52:36;;;;;;;11.93;8.57;;;14.30;99.90;;;;;;5039807;28;20037;-77
2023/08/11 03:55:03;;;;;;;11.68;7.85;;;14.30;99.90;;;;;;5039575;28;20041;-78
2023/08/11 03:57:29;;;;;;;11.55;8.35;;;14.30;99.90;;;;;;5038079;28;20099;-77
2023/08/11 03:59:55;;;;;;;11.90;8.25;;;14.30;99.90;;;;;;5037226;28;20038;-77
2023/08/11 04:02:21;;;;;;;13.70;8.45;;;14.30;99.90;;;;;;5035292;28;20037;-77
2023/08/11 04:04:47;;;;;;;13.43;8.45;;;14.30;99.90;;;;;;5034422;28;20075;-76
2023/08/11 04:07:13;;;;;;;11.80;8.30;;;14.30;99.90;;;;;;5050799;28;20112;-77
2023/08/11 04:09:43;;;;;;;11.05;8.43;;;14.30;99.90;;;;;;5053286;28;20039;-78
2023/08/11 04:12:10;;;;;;;9.63;7.90;;;14.30;99.90;;;;;;5039016;28;20140;-77
2023/08/11 04:14:39;;;;;;;9.43;7.70;;;14.30;99.90;;;;;;5033500;28;20056;-77
2023/08/11 04:17:04;;;;;;;10.52;7.93;;;14.30;99.90;;;;;;5015960;28;20037;-78
2023/08/11 04:19:31;;;;;;;13.57;8.20;;;14.30;99.90;;;;;;5005574;28;20049;-78
2023/08/11 04:21:57;;;;;;;11.88;8.32;;;14.30;99.90;;;;;;5051029;28;20045;-78
2023/08/11 04:24:23;;;;;;;12.00;8.45;;;14.20;99.90;;;;;;5053854;28;20570;-79
2023/08/11 04:26:51;;;;;;;11.50;8.60;;;14.30;99.90;;;;;;5040115;28;20045;-76
2023/08/11 04:29:17;;;;;;;12.18;7.60;;;14.30;99.90;;;;;;5044031;28;20075;-78
2023/08/11 04:31:42;;;;;;;12.43;8.35;;;14.20;99.90;;;;;;5051936;28;20077;-78
2023/08/11 04:34:10;;;;;;;11.98;7.40;;;14.30;99.90;;;;;;5006531;28;20575;-76
2023/08/11 04:36:36;;;;;;;12.07;8.23;;;14.30;99.90;;;;;;5057180;28;20049;-76
2023/08/11 04:39:03;;;;;;;12.07;7.65;;;14.30;99.90;;;;;;5057929;28;20053;-76
2023/08/11 04:41:28;;;;;;;10.43;7.97;;;14.30;99.90;;;;;;5035261;28;20375;-76
2023/08/11 04:43:54;;;;;;;11.23;7.65;;;14.30;99.90;;;;;;5035886;28;20087;-76
2023/08/11 04:46:20;;;;;;;10.68;7.65;;;14.30;99.90;;;;;;5065717;28;20029;-76
2023/08/11 04:48:46;;;;;;;9.25;7.00;;;14.30;99.90;;;;;;5042934;28;20341;-75
2023/08/11 04:51:11;;;;;;;8.95;7.18;;;14.30;99.90;;;;;;5040253;28;20050;-75
2023/08/11 04:53:38;;;;;;;12.25;7.68;;;14.30;99.90;;;;;;5030128;28;20498;-76
2023/08/11 04:56:04;;;;;;;10.82;7.25;;;14.40;99.90;;;;;;5069265;28;20123;-75
2023/08/11 04:58:33;;;;;;;16.50;7.70;;;14.40;99.90;;;;;;5044381;28;20033;-70
2023/08/11 05:01:03;;;;;;;17.30;7.43;;;14.40;99.90;;;;;;5034991;28;20048;-70
2023/08/11 05:03:29;;;;;;;12.35;7.85;;;14.40;99.90;;;;;;5043075;28;20042;-70
2023/08/11 05:05:55;;;;;;;10.32;7.90;;;14.50;99.90;;;;;;5034837;28;20057;-70
2023/08/11 05:08:24;;;;;;;9.18;7.18;;;14.50;99.90;;;;;;5037764;28;20051;-71
2023/08/11 05:10:50;;;;;;;10.57;7.40;;;14.50;99.90;;;;;;5034793;28;20082;-70
2023/08/11 05:13:15;;;;;;;11.02;7.32;;;14.50;99.90;;;;;;5059822;28;20437;-70
2023/08/11 05:15:41;;;;;;;9.60;7.10;;;14.60;99.90;;;;;;5035616;28;20457;-70
2023/08/11 05:18:07;;;;;;;12.48;7.80;;;14.60;99.90;;;;;;5018892;28;20100;-70
2023/08/11 05:20:33;;;;;;;17.13;7.30;;;14.70;99.90;;;;;;5074670;28;20073;-70
2023/08/11 05:22:59;;;;;;;9.68;6.60;;;14.70;99.90;;;;;;5052903;28;20493;-70
2023/08/11 05:25:26;;;;;;;9.88;6.90;;;14.70;99.90;;;;;;5025630;28;20150;-70
2023/08/11 05:27:52;;;;;;;14.07;7.63;;;14.80;99.90;;;;;;4994337;28;20375;-70
2023/08/11 05:30:18;;;;;;;11.52;7.30;;;14.80;99.90;;;;;;5037296;28;20048;-70
2023/08/11 05:32:44;;;;;;;13.57;6.78;;;14.90;99.90;;;;;;5035442;28;20521;-70
2023/08/11 05:35:10;;;;;;;9.98;6.78;;;15.00;99.90;;;;;;5041713;28;20151;-70
2023/08/11 05:37:37;;;;;;;9.60;7.75;;;15.00;99.90;;;;;;5032715;28;20466;-70
2023/08/11 05:40:09;;;;;;;9.55;6.78;;;15.10;99.90;;;;;;5028866;28;20041;-70
2023/08/11 05:42:34;;;;;;;10.30;6.53;;;15.10;99.90;;;;;;5070332;28;20060;-70
2023/08/11 05:45:00;;;;;;;11.27;6.88;;;15.10;99.90;;;;;;5039511;28;20481;-70
2023/08/11 05:47:26;;;;;;;8.65;6.03;;;15.20;99.90;;;;;;5029730;28;20128;-70
2023/08/11 05:49:54;;;;;;;7.85;6.13;;;15.30;99.90;;;;;;5023620;28;20040;-70
2023/08/11 05:52:20;;;;;;;8.07;5.65;;;15.40;99.90;;;;;;5032585;28;20064;-70
2023/08/11 05:54:46;;;;;;;12.52;6.43;;;15.40;99.90;;;;;;5071816;28;20094;-70
2023/08/11 05:57:12;;;;;;;10.70;5.65;;;15.50;99.90;;;;;;5055106;28;20043;-70
2023/08/11 05:59:38;;;;;;;9.00;5.13;;;15.50;99.90;;;;;;5038591;28;20048;-70
2023/08/11 06:02:04;;;;;;;9.88;6.00;;;15.60;99.90;;;;;;5021310;28;20037;-70
2023/08/11 06:04:29;;;;;;;8.02;5.30;;;15.70;99.90;;;;;;5039973;28;20103;-71
2023/08/11 06:06:55;;;;;;;8.23;5.57;;;15.80;99.90;;;;;;5036198;28;20029;-72
2023/08/11 06:09:22;;;;;;;7.93;6.05;;;15.90;99.90;;;;;;5058708;28;20438;-72
2023/08/11 06:11:48;;;;;;;8.70;5.20;;;15.90;99.90;;;;;;5053461;28;20050;-72
2023/08/11 06:14:14;;;;;;;7.63;5.55;;;16.00;99.90;;;;;;5040213;28;20414;-72
2023/08/11 06:16:40;;;;;;;7.55;4.90;;;16.10;99.90;;;;;;5003005;28;20490;-72
2023/08/11 06:19:05;;;;;;;8.73;5.00;;;16.20;99.90;;;;;;5049419;28;20403;-72
2023/08/11 06:21:31;;;;;;;9.73;5.38;;;16.30;99.90;;;;;;5038791;28;20043;-72
2023/08/11 06:23:57;;;;;;;9.68;5.40;;;16.40;99.90;;;;;;5031248;28;20048;-72
2023/08/11 06:26:23;;;;;;;8.77;4.88;;;16.50;99.90;;;;;;5074837;28;20041;-71
2023/08/11 06:28:52;;;;;;;8.75;4.88;;;16.50;99.90;;;;;;5040274;28;20029;-72
2023/08/11 06:31:19;;;;;;;8.57;4.88;;;16.60;99.90;;;;;;5037481;28;20041;-71
2023/08/11 06:33:45;;;;;;;19.20;4.72;;;16.60;99.90;;;;;;5053165;28;20399;-71
2023/08/11 06:36:11;;;;;;;10.23;5.20;;;16.70;99.90;;;;;;5042113;28;20131;-71
2023/08/11 06:38:37;;;;;;;9.70;5.25;;;16.90;99.90;;;;;;5039177;28;20591;-71
2023/08/11 06:41:03;;;;;;;7.85;4.55;;;17.00;99.90;;;;;;5043174;28;20532;-71
2023/08/11 06:43:29;;;;;;;6.82;4.63;;;17.00;99.90;;;;;;5042038;28;20059;-71
2023/08/11 06:45:56;;;;;;;9.60;4.70;;;17.10;99.90;;;;;;5020366;28;20037;-71
2023/08/11 06:48:21;;;;;;;6.50;4.30;;;17.20;99.90;;;;;;5026596;28;20134;-71
2023/08/11 06:50:47;;;;;;;6.47;4.10;;;17.30;99.90;;;;;;5054931;28;20041;-71
2023/08/11 06:53:13;;;;;;;7.28;4.68;;;17.40;99.90;;;;;;5021835;28;20410;-71
2023/08/11 06:55:39;;;;;;;9.35;4.50;;;17.50;99.90;;;;;;5035295;28;20220;-71
2023/08/11 06:58:05;;;;;;;6.55;4.60;;;17.60;99.90;;;;;;5040410;28;20048;-71
2023/08/11 07:00:31;;;;;;;6.50;4.60;;;17.70;99.90;;;;;;5017062;28;20516;-71
2023/08/11 07:02:57;;;;;;;8.80;4.20;;;17.80;99.90;;;;;;5010483;28;20044;-71
2023/08/11 07:05:23;;;;;;;5.10;4.18;;;17.90;99.90;;;;;;5053891;28;20079;-71
2023/08/11 07:07:49;;;;;;;9.55;4.43;;;18.10;99.90;;;;;;5022519;28;20418;-71
2023/08/11 07:10:15;;;;;;;6.57;3.88;;;18.20;99.90;;;;;;5038338;28;20046;-71
2023/08/11 07:12:41;;;;;;;5.70;3.78;;;18.40;99.90;;;;;;5005843;28;20044;-71
2023/08/11 07:15:08;;;;;;;4.53;3.80;;;18.50;99.90;;;;;;5012917;28;20509;-71
2023/08/11 07:17:34;;;;;;;4.78;3.13;;;18.70;99.90;;;;;;5021262;28;20042;-71
2023/08/11 07:20:00;;;;;;;5.57;3.67;;;19.00;99.90;;;;;;5071587;28;20068;-71
2023/08/11 07:22:25;;;;;;;5.30;3.35;;;19.00;99.90;;;;;;5020632;28;20051;-71
2023/08/11 07:24:51;;;;;;;4.47;3.40;;;19.20;99.90;;;;;;5068936;28;20605;-71
2023/08/11 07:27:17;;;;;;;5.55;3.15;;;19.30;99.90;;;;;;5040270;28;20138;-71
2023/08/11 07:29:43;;;;;;;4.95;3.30;;;19.40;99.90;;;;;;5038419;28;20041;-69
2023/08/11 07:32:09;;;;;;;4.28;3.60;;;19.50;99.90;;;;;;5034436;28;20408;-69
2023/08/11 07:34:36;;;;;;;5.60;3.55;;;19.70;99.90;;;;;;5037642;28;20037;-68
2023/08/11 07:37:04;;;;;;;6.00;3.35;;;19.80;99.90;;;;;;5036606;28;20184;-68
2023/08/11 07:39:30;;;;;;;6.35;2.97;;;19.90;99.90;;;;;;5029723;28;20516;-68
2023/08/11 07:42:02;;;;;;;4.85;3.22;;;20.10;99.90;;;;;;5066377;28;20037;-68
2023/08/11 07:44:29;;;;;;;5.57;2.88;;;20.20;99.90;;;;;;5022888;28;20042;-68
2023/08/11 07:46:55;;;;;;;4.18;3.25;;;20.30;99.90;;;;;;5042787;28;20037;-68
2023/08/11 07:49:21;;;;;;;8.55;2.63;;;20.50;99.90;;;;;;5032214;28;20116;-68
2023/08/11 07:51:48;;;;;;;3.85;3.08;;;20.70;99.90;;;;;;5046298;28;20050;-68
2023/08/11 07:54:16;;;;;;;5.78;2.97;;;20.80;99.90;;;;;;5032385;28;20049;-68
2023/08/11 07:56:43;;;;;;;7.00;2.90;;;20.90;99.90;;;;;;5039253;28;20139;-68
2023/08/11 07:59:09;;;;;;;6.90;2.85;;;21.00;99.90;;;;;;5070247;28;20033;-68
2023/08/11 08:01:36;;;;;;;7.30;3.30;;;21.10;99.90;;;;;;5010900;28;20039;-68
2023/08/11 08:04:03;;;;;;;3.50;2.60;;;21.10;99.90;;;;;;5079471;28;20048;-68
2023/08/11 08:06:32;;;;;;;8.77;3.17;;;21.20;99.90;;;;;;5037735;28;20072;-69
2023/08/11 08:08:59;;;;;;;6.53;2.92;;;21.30;99.90;;;;;;5038389;28;20037;-70
2023/08/11 08:11:26;;;;;;;4.95;3.00;;;21.40;99.90;;;;;;5024592;28;20037;-70
2023/08/11 08:13:51;;;;;;;6.22;3.25;;;21.50;99.90;;;;;;5071242;28;20556;-70
2023/08/11 08:16:17;;;;;;;5.15;2.97;;;21.70;99.90;;;;;;5074031;28;20045;-69
2023/08/11 08:18:43;;;;;;;4.03;3.10;;;21.90;99.90;;;;;;5040227;28;20084;-68
2023/08/11 08:21:09;;;;;;;4.65;3.30;;;22.00;99.90;;;;;;5030812;28;20049;-68
2023/08/11 08:23:34;;;;;;;4.68;3.30;;;22.10;99.90;;;;;;5072123;28;20098;-68
2023/08/11 08:26:00;;;;;;;3.40;2.95;;;22.10;99.90;;;;;;5043804;28;20053;-68
2023/08/11 08:28:26;;;;;;;6.18;2.97;;;22.30;99.90;;;;;;5054491;28;20109;-66
2023/08/11 08:30:52;;;;;;;4.13;2.78;;;22.30;99.90;;;;;;5054111;28;20490;-68
2023/08/11 08:33:18;;;;;;;5.15;3.03;;;22.50;99.90;;;;;;5040191;28;20047;-71
2023/08/11 08:35:43;;;;;;;6.40;3.28;;;22.70;99.90;;;;;;5042612;28;20601;-71
2023/08/11 08:38:09;;;;;;;6.35;3.17;;;22.80;99.90;;;;;;5038359;28;20103;-70
2023/08/11 08:40:36;;;;;;;4.70;3.22;;;22.90;99.90;;;;;;5043227;28;20033;-70
2023/08/11 08:43:03;;;;;;;5.53;3.15;;;22.90;99.90;;;;;;5036981;28;20068;-71
2023/08/11 08:45:31;;;;;;;5.63;3.40;;;23.00;99.90;;;;;;5075727;28;21462;-70
2023/08/11 08:47:59;;;;;;;4.30;3.45;;;23.00;99.90;;;;;;5028867;28;20086;-69
2023/08/11 08:50:25;;;;;;;3.47;3.17;;;23.10;99.90;;;;;;5041099;28;20592;-69
2023/08/11 08:52:53;;;;;;;8.55;3.00;;;23.20;99.90;;;;;;5065879;28;20040;-69
2023/08/11 08:55:18;;;;;;;5.50;3.45;;;23.20;99.90;;;;;;5025786;28;20498;-69
2023/08/11 08:57:46;;;;;;;3.75;3.20;;;23.30;99.90;;;;;;5029987;28;20048;-69
2023/08/11 09:00:12;;;;;;;9.18;3.17;;;23.40;99.90;;;;;;4996067;28;20033;-69
2023/08/11 09:02:41;;;;;;;4.40;3.35;;;23.50;99.90;;;;;;4994313;28;20049;-69
2023/08/11 09:05:08;;;;;;;4.10;3.08;;;23.60;99.90;;;;;;5035046;28;20041;-69
2023/08/11 09:07:34;;;;;;;4.10;3.38;;;23.70;99.90;;;;;;5031799;28;20382;-69
2023/08/11 09:09:59;;;;;;;6.15;3.20;;;23.90;99.90;;;;;;5027167;28;20107;-68
2023/08/11 09:12:27;;;;;;;5.43;3.22;;;24.00;99.90;;;;;;5003531;28;20044;-69
2023/08/11 09:14:54;;;;;;;4.28;3.30;;;24.00;99.90;;;;;;5034252;28;20432;-69
2023/08/11 09:17:19;;;;;;;6.88;3.60;;;24.10;99.90;;;;;;5029136;28;20060;-69
2023/08/11 09:19:51;;;;;;;5.60;3.47;;;24.10;99.90;;;;;;5030883;28;20546;-68
2023/08/11 09:22:23;;;;;;;;;;;24.10;99.90;;;;;;5034263;28;20045;-70
2023/08/11 09:24:49;;;;;;;4.07;3.58;;;24.20;99.90;;;;;;5055441;28;20006;-70
2023/08/11 09:27:15;;;;;;;3.88;3.00;;;24.30;99.90;;;;;;5037116;28;20083;-70
2023/08/11 09:29:41;;;;;;;4.10;2.95;;;24.50;99.90;;;;;;5031768;28;20052;-69
2023/08/11 09:32:07;;;;;;;4.82;3.17;;;24.60;99.90;;;;;;5032935;28;20041;-70
2023/08/11 09:34:37;;;;;;;10.18;3.00;;;24.70;99.90;;;;;;5015616;28;20536;-71
2023/08/11 09:37:03;;;;;;;6.13;3.00;;;24.80;99.90;;;;;;5030863;28;20077;-71
2023/08/11 09:39:31;;;;;;;3.72;2.95;;;24.90;99.90;;;;;;5012516;28;20184;-71
2023/08/11 09:41:56;;;;;;;3.47;2.67;;;25.00;99.90;;;;;;5024674;28;20066;-71
2023/08/11 09:44:22;;;;;;;3.70;3.10;;;25.10;99.90;;;;;;5007306;28;20032;-70
2023/08/11 09:46:49;;;;;;;6.50;3.78;;;25.20;99.90;;;;;;5009067;28;20398;-71
2023/08/11 09:49:15;;;;;;;11.43;4.88;;;25.20;99.90;;;;;;5032811;28;20041;-71
2023/08/11 09:51:43;;;;;;;6.70;3.97;;;25.30;99.90;;;;;;5073248;28;20389;-70
2023/08/11 09:54:10;;;;;;;6.43;2.90;;;25.30;99.90;;;;;;5039306;28;20449;-70
2023/08/11 09:56:41;;;;;;;5.47;3.40;;;25.40;99.90;;;;;;5024067;28;20132;-70
2023/08/11 09:59:12;;;;;;;7.47;2.97;;;25.60;99.90;;;;;;5040277;28;20521;-70
2023/08/11 10:01:42;;;;;;;6.25;3.25;;;25.60;99.90;;;;;;5031908;28;20041;-70
2023/08/11 10:04:17;;;;;;;6.57;3.03;;;25.60;99.90;;;;;;5046323;28;20041;-69
2023/08/11 10:06:49;;;;;;;11.00;3.63;;;25.80;99.90;;;;;;5032182;28;20042;-70
2023/08/11 10:09:16;;;;;;;4.88;2.78;;;25.90;99.90;;;;;;5047861;28;20061;-69
2023/08/11 10:11:44;;;;;;;5.95;3.10;;;26.10;99.90;;;;;;5058052;28;20540;-69
2023/08/11 10:14:14;;;;;;;4.72;3.40;;;26.10;99.90;;;;;;5031098;28;20041;-69
2023/08/11 10:16:40;;;;;;;7.47;3.30;;;26.10;99.90;;;;;;5030467;28;20042;-69
2023/08/11 10:19:07;;;;;;;10.50;3.55;;;26.20;99.90;;;;;;5030949;28;20057;-69
2023/08/11 10:21:34;;;;;;;5.03;3.28;;;26.20;99.90;;;;;;5030070;28;20045;-69
2023/08/11 10:24:01;;;;;;;4.97;2.97;;;26.30;99.90;;;;;;5031179;28;20052;-69
2023/08/11 10:26:29;;;;;;;9.48;3.17;;;26.40;99.90;;;;;;4998194;28;20037;-70
2023/08/11 10:28:55;;;;;;;4.85;3.10;;;26.50;99.90;;;;;;5015932;28;20033;-70
2023/08/11 10:31:23;;;;;;;6.65;3.17;;;26.50;99.90;;;;;;4998072;28;20034;-69
2023/08/11 10:33:51;;;;;;;7.60;2.90;;;26.70;99.90;;;;;;5031325;28;20049;-69
2023/08/11 10:36:22;;;;;;;6.63;3.75;;;26.80;99.90;;;;;;5048186;28;20120;-69
2023/08/11 10:39:03;;;;;;;4.87;3.20;;;26.80;98.90;;;;;;5031561;28;20126;-69
2023/08/11 10:41:30;;;;;;;4.90;2.92;;;26.90;99.90;;;;;;5013238;28;20402;-69
2023/08/11 10:43:56;;;;;;;3.55;2.50;;;27.00;99.90;;;;;;5031320;28;20042;-69
2023/08/11 10:46:31;;;;;;;5.90;2.80;;;27.10;99.90;;;;;;5031659;28;20057;-69
2023/08/11 10:49:07;;;;;;;5.20;2.53;;;27.10;99.80;;;;;;5027854;28;20037;-69
2023/08/11 10:51:40;;;;;;;4.03;2.47;;;27.10;99.50;;;;;;5030400;28;20045;-69
2023/08/11 10:54:06;;;;;;;3.67;2.92;;;27.20;98.20;;;;;;5012228;28;20106;-69
2023/08/11 10:56:40;;;;;;;4.07;3.08;;;27.20;98.70;;;;;;5061305;28;20404;-69
2023/08/11 10:59:08;;;;;;;3.65;2.50;;;27.30;99.40;;;;;;5030533;28;20073;-70
2023/08/11 11:01:42;;;;;;;6.28;2.80;;;27.40;99.30;;;;;;5031083;28;20033;-69
2023/08/11 11:04:11;;;;;;;4.47;3.30;;;27.50;99.40;;;;;;5015418;28;20494;-69
2023/08/11 11:06:37;;;;;;;4.90;2.95;;;27.70;99.80;;;;;;4998589;28;20040;-69
2023/08/11 11:09:03;;;;;;;6.45;2.80;;;27.60;96.70;;;;;;5030557;28;20406;-69
2023/08/11 11:11:33;;;;;;;2.65;2.40;;;27.60;98.40;;;;;;5030842;28;20033;-68
2023/08/11 11:13:59;;;;;;;4.60;2.72;;;27.80;98.80;;;;;;5015432;28;20060;-69
2023/08/11 11:16:26;;;;;;;3.97;2.40;;;27.90;98.70;;;;;;5014366;28;20045;-69
2023/08/11 11:18:52;;;;;;;5.78;2.47;;;27.90;98.40;;;;;;5029895;28;20080;-69
2023/08/11 11:21:19;;;;;;;7.72;2.47;;;28.10;98.20;;;;;;5019134;28;20052;-70
2023/08/11 11:23:46;;;;;;;4.55;2.30;;;28.10;98.20;;;;;;5029939;28;20778;-70
2023/08/11 11:26:28;;;;;;;5.32;2.70;;;28.20;97.80;;;;;;5024903;28;20037;-70
2023/08/11 11:28:55;;;;;;;3.20;2.60;;;28.30;97.40;;;;;;5017894;28;20129;-70
2023/08/11 11:31:22;;;;;;;3.17;2.17;;;28.30;97.40;;;;;;5029189;28;20052;-70
2023/08/11 11:33:49;;;;;;;8.88;3.00;;;28.40;97.60;;;;;;5010786;28;20045;-70
2023/08/11 11:36:17;;;;;;;4.50;2.50;;;28.40;97.40;;;;;;5017794;28;20085;-71
2023/08/11 11:38:43;;;;;;;3.70;2.50;;;28.50;97.80;;;;;;5032896;28;20041;-70
2023/08/11 11:41:11;;;;;;;4.90;2.50;;;28.60;97.70;;;;;;5050025;28;20051;-70
2023/08/11 11:43:37;;;;;;;6.00;2.80;;;28.50;95.70;;;;;;5033615;28;20051;-70
2023/08/11 11:46:04;;;;;;;2.85;2.17;;;28.50;96.10;;;;;;5018616;28;20045;-70
2023/08/11 11:48:30;;;;;;;6.38;2.85;;;28.60;95.70;;;;;;5034730;28;20037;-70
2023/08/11 11:50:56;;;;;;;5.65;2.45;;;28.50;95.30;;;;;;5034102;28;20088;-70
2023/08/11 11:53:25;;;;;;;3.17;2.30;;;28.60;95.80;;;;;;5017869;28;20065;-70
2023/08/11 11:55:51;;;;;;;2.95;2.30;;;28.70;96.40;;;;;;5033600;28;20045;-70
2023/08/11 11:58:18;;;;;;;4.32;2.78;;;28.80;96.10;;;;;;5034514;28;20131;-70
2023/08/11 12:00:47;;;;;;;4.53;2.53;;;28.80;95.60;;;;;;5034133;28;20044;-69
2023/08/11 12:03:13;;;;;;;5.93;2.40;;;28.50;93.90;;;;;;5028333;28;20073;-69
2023/08/11 12:05:39;;;;;;;4.15;2.65;;;28.40;94.00;;;;;;5034554;28;20041;-70
2023/08/11 12:08:24;;;;;;;3.92;2.42;;;28.20;95.30;;;;;;5034189;28;20076;-70
2023/08/11 12:10:50;;;;;;;3.63;2.70;;;28.20;95.50;;;;;;5033910;28;20042;-70
2023/08/11 12:13:17;;;;;;;5.65;2.38;;;28.10;94.30;;;;;;5050664;28;20087;-69
2023/08/11 12:15:47;;;;;;;3.60;2.20;;;28.20;94.20;;;;;;5017715;28;20517;-70
2023/08/11 12:18:13;;;;;;;7.18;2.78;;;28.20;94.10;;;;;;5033910;28;20771;-70
2023/08/11 12:20:40;;;;;;;4.32;2.53;;;28.20;94.70;;;;;;5016666;28;20049;-70
2023/08/11 12:23:06;;;;;;;6.78;2.60;;;28.30;94.50;;;;;;5033827;28;20091;-70
2023/08/11 12:25:32;;;;;;;4.50;2.30;;;28.50;94.40;;;;;;5033234;28;20125;-69
2023/08/11 12:28:01;;;;;;;3.40;2.45;;;28.80;95.10;;;;;;5034170;28;20033;-70
2023/08/11 12:30:27;;;;;;;3.50;2.35;;;28.90;94.60;;;;;;5016822;28;20049;-70
2023/08/11 12:32:53;;;;;;;3.65;2.20;;;29.00;94.00;;;;;;5016990;28;20044;-69
2023/08/11 12:35:19;;;;;;;2.63;2.00;;;29.20;94.30;;;;;;5034180;28;20045;-70
2023/08/11 12:37:44;;;;;;;5.05;2.08;;;29.10;93.70;;;;;;5012442;28;20402;-70
2023/08/11 12:40:11;;;;;;;4.53;2.42;;;29.20;92.20;;;;;;4983484;28;20052;-70
2023/08/11 12:42:37;;;;;;;3.92;2.40;;;29.10;91.90;;;;;;5031529;28;20037;-69
2023/08/11 12:45:04;;;;;;;4.15;2.60;;;29.20;93.00;;;;;;5033014;28;20044;-70
2023/08/11 12:47:30;;;;;;;3.58;2.80;;;29.20;92.80;;;;;;5032312;28;20131;-69
2023/08/11 12:49:57;;;;;;;5.40;2.50;;;29.40;92.90;;;;;;5016921;28;20501;-69
2023/08/11 12:52:22;;;;;;;5.28;2.35;;;29.50;92.90;;;;;;5016613;28;20041;-70
2023/08/11 12:54:48;;;;;;;3.25;2.67;;;29.50;92.20;;;;;;5032755;28;20599;-69
2023/08/11 12:57:16;;;;;;;5.88;2.72;;;29.30;91.30;;;;;;5016962;28;20049;-69
2023/08/11 12:59:42;;;;;;;6.38;2.35;;;29.20;91.20;;;;;;5016714;28;20033;-70
2023/08/11 13:02:14;;;;;;;4.22;2.45;;;29.10;92.00;;;;;;5016285;28;20501;-70
2023/08/11 13:04:39;;;;;;;7.18;2.67;;;29.30;92.70;;;;;;4999149;28;20413;-69
2023/08/11 13:07:05;;;;;;;5.00;2.60;;;29.30;92.60;;;;;;5016390;28;20041;-70